Time;durP1;ratioP1;P1;durP2;ratioP2;P2;SDS_P1;SDS_P2;PMS_P1;PMS_P2;Temp;Humidity;BMP_temperature;BMP_pressure;BME280_temperature;BME280_humidity;BME280_pressure;Samples;Min_cycle;Max_cycle;Signal;HPM_P1;HPM_P2
2021/06/13 00:06:34;;;;;;;5.72;4.40;;;;;;;17.68;67.76;97425.66;5115337;27;20605;-68
2021/06/13 00:10:03;;;;;;;6.32;4.35;;;;;;;17.77;67.38;97420.69;5119249;27;20601;-69
2021/06/13 00:12:28;;;;;;;6.15;4.32;;;;;;;17.93;66.96;97421.56;5088503;28;20172;-69
2021/06/13 00:23:56;;;;;;;5.25;4.18;;;;;;;17.82;66.78;97424.16;5123555;27;20600;-70
2021/06/13 00:26:22;;;;;;;5.10;4.15;;;;;;;17.84;66.75;97424.69;5108949;28;20617;-70
2021/06/13 00:29:49;;;;;;;4.78;3.63;;;;;;;18.11;66.05;97421.91;5104123;27;20540;-70
2021/06/13 00:32:42;;;;;;;6.15;4.95;;;;;;;18.15;65.43;97425.66;5113380;27;20610;-70
2021/06/13 00:39:51;;;;;;;4.70;3.78;;;;;;;18.08;65.45;97432.25;5131295;27;20321;-70
2021/06/13 00:42:20;;;;;;;5.78;4.30;;;;;;;17.97;65.81;97439.34;5129191;28;20180;-70
2021/06/13 00:44:46;;;;;;;4.82;4.07;;;;;;;17.99;65.57;97428.50;5128523;28;20199;-70
2021/06/13 00:47:11;;;;;;;7.60;4.30;;;;;;;18.01;65.42;97434.31;5126297;28;20200;-70
2021/06/13 00:49:37;;;;;;;4.70;3.88;;;;;;;18.19;65.14;97437.34;5107902;28;20163;-70
2021/06/13 00:52:03;;;;;;;4.93;3.72;;;;;;;18.13;64.79;97434.91;5109021;28;20241;-70
2021/06/13 00:54:28;;;;;;;3.63;3.33;;;;;;;18.06;64.67;97434.34;5108333;28;20195;-70
2021/06/13 01:01:24;;;;;;;4.50;3.90;;;;;;;18.04;63.68;97431.19;5112520;27;20999;-69
2021/06/13 01:10:46;;;;;;;4.10;3.38;;;;;;;18.13;63.39;97430.41;5121713;27;20542;-70
2021/06/13 01:13:37;;;;;;;3.30;2.95;;;;;;;18.22;63.03;97433.38;5094285;28;20195;-70
2021/06/13 01:16:15;;;;;;;4.05;3.45;;;;;;;18.30;62.81;97438.19;5089706;28;20250;-70
2021/06/13 01:22:38;;;;;;;4.07;3.50;;;;;;;17.86;64.58;97427.09;5114639;27;20748;-70
2021/06/13 01:28:30;;;;;;;3.92;3.63;;;;;;;17.97;64.23;97430.59;5130747;27;20323;-69
2021/06/13 01:32:34;;;;;;;3.53;3.22;;;;;;;17.96;63.88;97429.00;5112728;27;20959;-70
2021/06/13 01:35:05;;;;;;;4.07;3.67;;;;;;;18.02;63.66;97433.28;5097535;28;20172;-69
2021/06/13 01:37:34;;;;;;;6.32;3.78;;;;;;;18.08;63.56;97426.94;5088573;28;20196;-70
2021/06/13 01:40:05;;;;;;;3.90;3.40;;;;;;;18.05;63.68;97420.31;5086755;28;20175;-69
2021/06/13 01:42:32;;;;;;;5.63;3.90;;;;;;;17.94;63.92;97420.53;5088132;28;20165;-70
2021/06/13 01:45:04;;;;;;;6.43;3.90;;;;;;;17.83;64.19;97417.78;5087661;28;20185;-69
2021/06/13 01:47:30;;;;;;;3.95;3.60;;;;;;;17.64;64.68;97421.94;5088278;28;20197;-69
2021/06/13 01:49:57;;;;;;;4.28;3.85;;;;;;;17.76;63.98;97419.88;5087694;28;20173;-69
2021/06/13 01:52:25;;;;;;;4.38;3.50;;;;;;;17.65;64.30;97428.03;5088029;28;20595;-69
2021/06/13 01:54:52;;;;;;;4.43;3.50;;;;;;;17.68;64.38;97430.97;5087627;28;20184;-69
2021/06/13 01:57:18;;;;;;;4.38;3.40;;;;;;;17.77;63.88;97426.78;5088187;28;20205;-69
2021/06/13 02:09:25;;;;;;;5.18;3.85;;;;;;;17.29;65.01;97429.59;5149322;27;20492;-70
2021/06/13 02:11:54;;;;;;;3.72;3.10;;;;;;;17.26;64.47;97430.13;5128641;28;20527;-70
2021/06/13 02:14:24;;;;;;;4.63;3.30;;;;;;;17.34;63.49;97424.31;5129428;27;20696;-70
2021/06/13 02:16:51;;;;;;;6.50;3.38;;;;;;;17.40;62.81;97424.13;5128612;28;20533;-70
2021/06/13 02:19:20;;;;;;;3.40;3.10;;;;;;;17.56;62.31;97421.56;5108711;28;20708;-70
2021/06/13 02:21:48;;;;;;;4.18;3.20;;;;;;;17.52;62.44;97429.25;5107971;28;20272;-70
2021/06/13 02:24:17;;;;;;;4.22;3.72;;;;;;;17.56;62.59;97426.88;5109136;28;20210;-70
2021/06/13 02:26:44;;;;;;;4.10;3.33;;;;;;;17.60;62.77;97420.06;5107971;28;20629;-70
2021/06/13 02:29:32;;;;;;;3.72;3.35;;;;;;;17.60;62.81;97428.81;5109232;27;20307;-69
2021/06/13 02:31:58;;;;;;;3.72;3.30;;;;;;;17.53;63.34;97428.19;5099597;28;20697;-70
2021/06/13 02:34:27;;;;;;;3.30;3.00;;;;;;;17.71;63.07;97424.38;5101839;28;20183;-69
2021/06/13 02:36:56;;;;;;;4.40;3.20;;;;;;;17.90;62.65;97420.22;5090581;28;20181;-69
2021/06/13 02:39:22;;;;;;;4.28;2.88;;;;;;;17.91;62.74;97429.78;5088250;28;20205;-69
2021/06/13 02:41:49;;;;;;;4.20;3.42;;;;;;;17.84;63.05;97421.25;5086266;28;20173;-70
2021/06/13 02:44:15;;;;;;;5.70;3.92;;;;;;;17.81;63.33;97430.53;5088512;28;20636;-70
2021/06/13 02:46:41;;;;;;;5.55;3.42;;;;;;;18.05;63.17;97430.94;5087385;28;20173;-70
2021/06/13 02:49:08;;;;;;;3.90;3.50;;;;;;;17.82;64.11;97439.28;5087905;28;20194;-69
2021/06/13 02:51:37;;;;;;;4.07;3.67;;;;;;;17.66;64.55;97437.59;5087988;28;20203;-70
2021/06/13 02:54:10;;;;;;;4.15;3.40;;;;;;;17.78;63.83;97438.19;5088726;28;20578;-70
2021/06/13 02:56:55;;;;;;;4.35;3.83;;;;;;;17.63;64.41;97446.03;5088128;28;20536;-69
2021/06/13 03:01:21;;;;;;;3.42;3.10;;;;;;;17.74;64.12;97453.00;5113128;27;20974;-70
2021/06/13 03:03:48;;;;;;;4.53;3.30;;;;;;;17.64;64.18;97450.28;5084974;28;20609;-70
2021/06/13 03:06:20;;;;;;;3.97;3.22;;;;;;;17.61;64.11;97453.47;5074934;28;20184;-69
2021/06/13 03:08:50;;;;;;;4.35;2.95;;;;;;;17.80;63.10;97450.13;5078975;28;20547;-69
2021/06/13 03:11:17;;;;;;;6.63;3.10;;;;;;;17.81;63.04;97453.59;5074217;28;20173;-69
2021/06/13 03:13:46;;;;;;;3.22;2.92;;;;;;;17.78;62.89;97452.25;5072605;28;20172;-69
2021/06/13 03:16:12;;;;;;;3.88;2.78;;;;;;;17.79;63.05;97459.16;5073201;28;20174;-69
2021/06/13 03:18:40;;;;;;;3.80;2.85;;;;;;;17.70;62.51;97455.38;5074113;28;20213;-70
2021/06/13 03:21:08;;;;;;;3.38;2.70;;;;;;;17.29;64.48;97461.38;5086617;28;20220;-69
2021/06/13 03:23:34;;;;;;;3.95;3.45;;;;;;;17.46;63.65;97465.50;5084821;28;20181;-70
2021/06/13 03:26:02;;;;;;;4.03;3.10;;;;;;;17.32;64.20;97469.66;5084986;28;20169;-70
2021/06/13 03:28:29;;;;;;;3.38;2.95;;;;;;;17.37;63.90;97461.75;5081125;28;20219;-71
2021/06/13 03:30:56;;;;;;;6.45;3.83;;;;;;;17.46;62.86;97467.34;5070525;28;20177;-70
2021/06/13 03:33:23;;;;;;;4.80;3.15;;;;;;;17.37;62.75;97469.69;5079536;28;20239;-70
2021/06/13 03:35:50;;;;;;;2.70;2.50;;;;;;;17.13;63.23;97465.75;5077090;28;20172;-70
2021/06/13 03:38:16;;;;;;;5.38;3.25;;;;;;;17.16;63.40;97465.28;5073675;28;20201;-70
2021/06/13 03:40:42;;;;;;;4.55;3.38;;;;;;;17.16;63.44;97467.13;5073888;28;20285;-69
2021/06/13 03:43:08;;;;;;;3.17;2.78;;;;;;;17.18;63.46;97471.09;5068581;28;20177;-70
2021/06/13 03:45:34;;;;;;;3.13;2.63;;;;;;;17.01;63.86;97473.06;5080070;28;20173;-69
2021/06/13 03:48:03;;;;;;;3.30;3.00;;;;;;;17.33;62.69;97473.09;5073277;28;20288;-69
2021/06/13 03:50:30;;;;;;;3.22;2.90;;;;;;;17.23;62.90;97471.16;5079915;28;20252;-69
2021/06/13 03:52:56;;;;;;;5.68;2.90;;;;;;;17.29;62.83;97480.75;5086604;28;20191;-70
2021/06/13 03:55:22;;;;;;;6.70;3.22;;;;;;;16.95;63.79;97477.50;5071743;28;20182;-70
2021/06/13 03:57:51;;;;;;;3.55;3.10;;;;;;;17.18;63.26;97483.53;5082985;28;20210;-70
2021/06/13 04:00:17;;;;;;;4.03;3.33;;;;;;;17.29;63.26;97479.94;5084714;28;20232;-70
2021/06/13 04:02:46;;;;;;;5.00;3.10;;;;;;;17.30;63.58;97479.69;5096625;28;20177;-70
2021/06/13 04:05:15;;;;;;;4.15;2.95;;;;;;;17.21;64.00;97478.56;5102549;28;20176;-69
2021/06/13 04:07:42;;;;;;;4.57;2.88;;;;;;;17.58;63.38;97480.44;5100720;28;20200;-69
2021/06/13 04:10:08;;;;;;;2.90;2.58;;;;;;;17.53;63.12;97485.72;5093050;28;20168;-69
2021/06/13 04:12:36;;;;;;;3.10;2.85;;;;;;;17.30;64.00;97479.69;5086342;28;20200;-69
2021/06/13 04:15:02;;;;;;;6.05;3.22;;;;;;;17.56;63.32;97486.00;5080537;28;20174;-69
2021/06/13 04:17:27;;;;;;;7.20;2.90;;;;;;;17.59;63.13;97488.16;5088972;28;20346;-69
2021/06/13 04:19:54;;;;;;;3.47;3.17;;;;;;;17.73;63.08;97491.97;5073423;28;20186;-70
2021/06/13 04:22:21;;;;;;;3.42;3.13;;;;;;;17.77;62.82;97493.09;5081081;28;20169;-69
2021/06/13 04:24:49;;;;;;;5.18;2.83;;;;;;;18.13;61.66;97493.28;5080620;28;20181;-70
2021/06/13 04:27:18;;;;;;;3.55;2.85;;;;;;;18.43;60.34;97490.81;5088853;28;20226;-70
2021/06/13 12:08:39;;;;;;;3.50;2.20;;;;;;;21.41;38.62;97612.31;5135020;27;20322;-66
2021/06/13 12:13:13;;;;;;;3.35;1.90;;;;;;;21.56;37.87;97614.94;5093425;27;20546;-67
2021/06/13 12:15:39;;;;;;;1.88;1.40;;;;;;;21.25;37.69;97618.03;5101415;28;20184;-66
2021/06/13 12:18:13;;;;;;;1.77;1.50;;;;;;;21.19;38.30;97624.44;5099391;28;20198;-67
2021/06/13 12:20:39;;;;;;;1.92;1.60;;;;;;;21.09;39.06;97623.41;5094184;28;20181;-67
2021/06/13 12:23:06;;;;;;;1.40;1.30;;;;;;;20.95;39.08;97611.75;5101283;28;20657;-67
2021/06/13 12:28:15;;;;;;;2.15;1.25;;;;;;;21.15;37.85;97610.88;5100957;28;20719;-66
2021/06/13 12:30:43;;;;;;;2.45;1.75;;;;;;;21.33;38.99;97606.78;5088116;28;20208;-66
2021/06/13 12:33:11;;;;;;;5.32;2.90;;;;;;;21.49;38.11;97611.75;5095290;28;20654;-66
2021/06/13 12:35:42;;;;;;;1.33;1.23;;;;;;;21.21;35.20;97617.78;5103683;28;20659;-66
2021/06/13 12:38:13;;;;;;;2.55;1.88;;;;;;;21.09;35.45;97604.75;5093018;28;20581;-66
2021/06/13 12:40:44;;;;;;;1.75;1.60;;;;;;;21.30;37.25;97602.78;5098514;28;20226;-66
2021/06/13 12:43:11;;;;;;;1.92;1.75;;;;;;;21.37;38.51;97602.50;5094667;28;20199;-66
2021/06/13 12:45:38;;;;;;;1.65;1.55;;;;;;;21.55;39.49;97600.00;5098536;28;20187;-68
2021/06/13 12:48:07;;;;;;;1.42;1.40;;;;;;;21.70;38.68;97606.28;5105589;28;20180;-68
2021/06/13 12:51:47;;;;;;;1.90;1.52;;;;;;;21.14;40.93;97603.91;5123313;27;21090;-67
2021/06/13 12:54:16;;;;;;;2.33;1.30;;;;;;;21.54;40.90;97590.38;5106516;28;20188;-68
2021/06/13 12:56:44;;;;;;;1.95;1.73;;;;;;;21.49;40.19;97595.75;5108276;28;20195;-68
2021/06/13 12:59:10;;;;;;;1.40;1.33;;;;;;;21.47;37.99;97603.22;5087633;28;20196;-68
2021/06/13 13:01:40;;;;;;;1.40;1.30;;;;;;;21.45;38.16;97596.59;5088067;28;20530;-68
2021/06/13 13:04:06;;;;;;;1.33;1.33;;;;;;;21.68;38.88;97592.44;5080179;28;20165;-68
2021/06/13 13:06:46;;;;;;;1.27;1.27;;;;;;;21.91;38.16;97592.50;5085522;28;20606;-68
2021/06/13 13:18:49;;;;;;;3.17;1.73;;;;;;;21.65;43.52;97590.31;5098962;27;20552;-69
2021/06/13 13:25:34;;;;;;;1.70;1.60;;;;;;;21.77;40.06;97588.09;5148882;27;20650;-68
2021/06/13 13:30:41;;;;;;;3.55;1.65;;;;;;;21.52;40.27;97595.19;5077400;28;20616;-66
2021/06/13 13:33:07;;;;;;;1.98;1.88;;;;;;;21.60;40.96;97595.69;5075060;28;20268;-67
2021/06/13 13:35:33;;;;;;;2.50;1.75;;;;;;;21.91;40.88;97589.84;5074997;28;20530;-67
2021/06/13 13:39:13;;;;;;;3.92;1.40;;;;;;;21.44;41.95;97587.00;5142715;27;20385;-68
2021/06/13 13:41:45;;;;;;;3.03;1.67;;;;;;;21.62;41.94;97580.22;5128896;28;20195;-68
2021/06/13 13:50:12;;;;;;;1.45;1.35;;;;;;;21.92;40.66;97563.94;5085691;28;20663;-67
2021/06/13 13:56:36;;;;;;;1.80;1.70;;;;;;;22.05;40.84;97570.53;5159038;27;110238;-69
2021/06/13 14:03:52;;;;;;;1.58;1.50;;;;;;;21.96;41.08;97565.78;5158958;27;20526;-70
2021/06/13 14:08:17;;;;;;;3.17;1.38;;;;;;;21.84;41.16;97560.03;5148910;27;20318;-71
2021/06/13 14:10:42;;;;;;;1.35;1.30;;;;;;;21.79;38.88;97554.69;5129243;28;20188;-71
2021/06/13 14:16:27;;;;;;;1.90;1.80;;;;;;;21.57;39.82;97544.47;5124158;27;20769;-72
2021/06/13 14:20:26;;;;;;;7.22;1.90;;;;;;;22.01;39.62;97545.50;5116975;27;20971;-72
2021/06/13 14:24:58;;;;;;;1.50;1.40;;;;;;;21.75;38.13;97547.53;5126202;27;20869;-75
2021/06/13 14:30:38;;;;;;;1.20;1.15;;;;;;;21.75;38.20;97544.88;5162635;27;107231;-72
2021/06/13 14:39:11;;;;;;;2.35;1.60;;;;;;;21.84;39.09;97540.53;5123111;27;20535;-71
2021/06/13 14:41:37;;;;;;;3.13;1.20;;;;;;;21.78;38.38;97545.13;5104343;28;20266;-71
2021/06/13 14:47:29;;;;;;;1.23;1.10;;;;;;;21.98;37.94;97530.81;5130590;27;20319;-70
2021/06/13 14:49:54;;;;;;;1.40;1.30;;;;;;;21.89;38.12;97535.94;5129187;28;20187;-71
2021/06/13 14:53:53;;;;;;;1.00;1.00;;;;;;;22.39;37.35;97528.53;5137881;27;20319;-71
2021/06/13 15:03:10;;;;;;;1.30;1.20;;;;;;;21.89;36.99;97524.47;5142357;27;20308;-71
2021/06/13 15:05:36;;;;;;;3.67;1.30;;;;;;;22.04;37.23;97531.56;5129207;28;20191;-70
2021/06/13 15:13:32;;;;;;;2.13;1.30;;;;;;;22.03;37.26;97532.63;5123642;27;20572;-69
2021/06/13 15:27:17;;;;;;;1.45;1.27;;;;;;;21.98;36.52;97520.94;5083520;28;20550;-68
2021/06/13 15:37:48;;;;;;;1.10;1.10;;;;;;;22.24;35.39;97521.47;5107422;27;20625;-68
2021/06/13 15:40:13;;;;;;;1.67;1.02;;;;;;;22.02;36.34;97536.38;5073104;28;20264;-68
2021/06/13 15:42:39;;;;;;;1.17;1.10;;;;;;;22.10;36.73;97523.22;5089915;28;20691;-68
2021/06/13 15:47:44;;;;;;;1.83;1.35;;;;;;;21.95;36.83;97520.72;5105667;27;20635;-68
2021/06/13 15:53:04;;;;;;;1.38;1.27;;;;;;;21.92;37.30;97516.69;5099856;27;20315;-69
2021/06/13 15:55:41;;;;;;;1.85;1.05;;;;;;;22.11;37.49;97510.69;5067747;28;20602;-69
2021/06/13 16:00:50;;;;;;;1.58;1.10;;;;;;;22.20;35.67;97512.44;5104773;27;20605;-68
2021/06/13 16:03:15;;;;;;;3.13;1.58;;;;;;;22.38;36.11;97509.03;5087215;28;20173;-68
2021/06/13 16:11:54;;;;;;;1.40;1.30;;;;;;;22.19;36.70;97515.38;5124257;27;20602;-68
2021/06/13 16:14:19;;;;;;;1.13;1.13;;;;;;;22.18;36.99;97524.50;5091969;28;20653;-68
2021/06/13 16:16:45;;;;;;;1.30;1.20;;;;;;;22.19;36.45;97518.84;5106712;28;20168;-68
2021/06/13 16:25:34;;;;;;;1.30;1.20;;;;;;;22.07;36.26;97507.75;5109178;27;20530;-67
2021/06/13 16:28:01;;;;;;;1.20;1.20;;;;;;;22.10;36.76;97499.19;5088042;28;20604;-66
2021/06/13 16:35:02;;;;;;;1.30;1.17;;;;;;;22.09;36.49;97488.78;5079064;27;20383;-67
2021/06/13 16:38:51;;;;;;;1.30;1.20;;;;;;;22.08;36.82;97484.53;5080032;28;21336;-68
2021/06/13 16:44:38;;;;;;;1.30;1.20;;;;;;;22.00;37.81;97485.16;5116772;27;20542;-68
2021/06/13 16:47:09;;;;;;;1.30;1.20;;;;;;;22.10;37.03;97488.53;5077855;28;20181;-68
2021/06/13 16:49:34;;;;;;;1.20;1.20;;;;;;;22.08;36.10;97495.22;5068721;28;20640;-69
2021/06/13 16:53:28;;;;;;;1.30;1.17;;;;;;;22.00;36.08;97490.50;5142011;27;165495;-66
2021/06/13 16:57:31;;;;;;;1.27;1.17;;;;;;;22.00;36.20;97485.97;5072655;28;20474;-68
2021/06/13 17:02:45;;;;;;;1.05;1.05;;;;;;;21.80;35.70;97491.44;5115898;27;20989;-67
2021/06/13 17:05:13;;;;;;;1.00;1.00;;;;;;;21.76;36.97;97485.06;5102007;28;20208;-67
2021/06/13 17:07:40;;;;;;;1.90;1.40;;;;;;;21.94;37.86;97489.72;5096665;28;20241;-67
2021/06/13 17:10:06;;;;;;;1.80;1.70;;;;;;;22.00;37.74;97490.50;5093593;28;20617;-66
2021/06/13 17:12:32;;;;;;;1.40;1.30;;;;;;;22.00;37.49;97487.81;5096155;28;20177;-69
2021/06/13 17:17:06;;;;;;;1.30;1.20;;;;;;;21.78;37.53;97483.75;5113173;27;20966;-69
2021/06/13 17:19:31;;;;;;;1.23;1.10;;;;;;;21.73;37.75;97481.13;5093735;28;20211;-68
2021/06/13 17:21:58;;;;;;;1.13;1.13;;;;;;;21.85;37.74;97481.50;5106222;28;20642;-68
2021/06/13 17:24:24;;;;;;;2.40;1.13;;;;;;;21.89;37.89;97485.22;5094403;28;20183;-68
2021/06/13 17:26:49;;;;;;;1.80;1.35;;;;;;;21.94;38.23;97490.56;5098349;28;20187;-68
2021/06/13 17:29:15;;;;;;;4.10;1.25;;;;;;;21.94;38.14;97492.38;5091416;28;20215;-67
2021/06/13 17:38:37;;;;;;;1.35;1.30;;;;;;;21.86;38.06;97484.97;5109285;27;20613;-70
2021/06/13 17:41:03;;;;;;;1.50;1.40;;;;;;;21.83;38.18;97491.69;5087461;28;20196;-71
2021/06/13 17:47:37;;;;;;;2.67;1.42;;;;;;;21.52;37.84;97490.34;5117980;27;20567;-69
2021/06/13 17:51:36;;;;;;;1.30;1.20;;;;;;;21.61;37.32;97491.34;5139258;27;20323;-70
2021/06/13 17:58:05;;;;;;;1.80;1.70;;;;;;;21.51;37.41;97483.44;5109585;27;20533;-70
2021/06/13 18:02:32;;;;;;;1.23;1.13;;;;;;;21.64;37.39;97480.09;5103725;27;21122;-69
2021/06/13 18:04:57;;;;;;;1.23;1.20;;;;;;;21.57;37.79;97479.63;5075315;28;20199;-69
2021/06/13 18:07:23;;;;;;;1.70;1.52;;;;;;;21.52;37.95;97482.34;5080219;28;20539;-70
2021/06/13 18:09:48;;;;;;;2.90;1.63;;;;;;;21.51;38.47;97478.88;5075057;28;20176;-68
2021/06/13 18:12:14;;;;;;;1.58;1.48;;;;;;;21.54;38.25;97478.34;5066858;28;20201;-69
2021/06/13 18:14:41;;;;;;;1.63;1.40;;;;;;;21.51;38.59;97480.78;5066449;28;20641;-68
2021/06/13 18:17:07;;;;;;;1.40;1.30;;;;;;;21.59;38.53;97482.81;5069413;28;20196;-69
2021/06/13 18:19:32;;;;;;;1.20;1.10;;;;;;;21.57;38.40;97475.09;5079880;28;20175;-69
2021/06/13 18:21:58;;;;;;;1.38;1.00;;;;;;;21.48;38.59;97478.66;5069282;28;20213;-70
2021/06/13 18:24:24;;;;;;;1.40;1.30;;;;;;;21.52;38.23;97480.47;5077667;28;20638;-68
2021/06/13 18:28:14;;;;;;;1.23;1.23;;;;;;;21.33;39.34;97484.09;5101262;27;20623;-69
2021/06/13 18:32:19;;;;;;;1.60;1.50;;;;;;;21.31;39.13;97475.56;5109910;27;20611;-69
2021/06/13 18:44:05;;;;;;;1.40;1.30;;;;;;;21.00;39.64;97478.44;5123464;27;20543;-70
2021/06/13 18:46:30;;;;;;;1.33;1.23;;;;;;;21.01;39.84;97477.34;5091655;28;20199;-70
2021/06/13 18:48:56;;;;;;;1.70;1.48;;;;;;;20.94;40.15;97490.19;5085868;28;20188;-68
